createdAt,value
2023-02-01T00:01:18.676Z,99658.69
2023-02-01T00:03:52.033Z,99669.38
2023-02-01T00:06:25.402Z,99668.13
2023-02-01T00:08:58.968Z,99681.38
2023-02-01T00:11:32.316Z,99683.09
2023-02-01T00:14:07.749Z,99690.09
2023-02-01T00:16:42.302Z,99677.97
2023-02-01T00:19:16.875Z,99682.22
2023-02-01T00:21:50.350Z,99686.72
2023-02-01T00:24:23.691Z,99689.44
2023-02-01T00:26:56.939Z,99684.56
2023-02-01T00:29:31.732Z,99696.16
2023-02-01T00:32:05.786Z,99688.94
2023-02-01T00:34:39.292Z,99685.72
2023-02-01T00:37:12.815Z,99688.25
2023-02-01T00:39:45.971Z,99693.22
2023-02-01T00:42:19.224Z,99694.91
2023-02-01T00:44:53.764Z,99701.03
2023-02-01T00:47:27.779Z,99699.16
2023-02-01T00:50:01.285Z,99695.91
2023-02-01T00:52:34.478Z,99702.81
2023-02-01T00:55:08.365Z,99702.34
2023-02-01T00:57:41.839Z,99705.91
2023-02-01T01:00:18.008Z,99706.78
2023-02-01T01:02:51.337Z,99699.09
2023-02-01T01:05:24.875Z,99694.53
2023-02-01T01:07:58.264Z,99695.44
2023-02-01T01:10:31.545Z,99697.25
2023-02-01T01:13:05.034Z,99698.41
2023-02-01T01:15:41.556Z,99694.13
2023-02-01T01:18:14.883Z,99629.13
2023-02-01T01:20:49.941Z,99687.03
2023-02-01T01:23:23.531Z,99688.88
2023-02-01T01:25:56.787Z,99685.31
2023-02-01T01:28:30.559Z,99688.88
2023-02-01T01:31:05.813Z,99677.81
2023-02-01T01:33:39.477Z,99691.25
2023-02-01T01:36:13.233Z,99684.47
2023-02-01T01:38:47.531Z,99687.03
2023-02-01T01:41:23.904Z,99690.59
2023-02-01T01:43:58.719Z,99687.19
2023-02-01T01:46:34.946Z,99684.47
2023-02-01T01:49:12.682Z,99690.75
2023-02-01T01:52:01.413Z,99660.47
2023-02-01T01:54:37.298Z,99673.72
2023-02-01T01:57:14.207Z,99684.84
2023-02-01T01:59:52.201Z,99692.75
2023-02-01T02:02:26.941Z,99684.00
2023-02-01T02:05:00.334Z,99690.34
2023-02-01T02:07:39.955Z,99682.53
2023-02-01T02:10:14.600Z,99688.72
2023-02-01T02:12:50.723Z,99680.22
2023-02-01T02:15:25.041Z,99686.00
2023-02-01T02:18:07.279Z,99687.09
2023-02-01T02:21:04.121Z,99686.47
2023-02-01T02:24:11.660Z,99692.56
2023-02-01T02:27:04.838Z,99686.69
2023-02-01T02:30:11.764Z,99694.50
2023-02-01T02:33:10.623Z,99688.69
2023-02-01T02:35:50.181Z,99678.16
2023-02-01T02:38:31.978Z,99628.94
2023-02-01T02:41:39.758Z,99677.25
2023-02-01T02:44:33.971Z,99679.41
2023-02-01T02:47:26.587Z,99684.03
2023-02-01T02:50:29.580Z,99663.75
2023-02-01T02:53:27.813Z,99660.19
2023-02-01T02:56:20.056Z,99689.72
2023-02-01T02:59:11.816Z,99693.31
2023-02-01T03:02:03.283Z,99673.00
2023-02-01T03:04:36.586Z,99689.19
2023-02-01T03:07:15.307Z,99686.50
2023-02-01T03:09:51.381Z,99694.38
2023-02-01T03:12:57.526Z,99691.03
2023-02-01T03:15:37.748Z,99698.91
2023-02-01T03:18:17.203Z,99692.66
2023-02-01T03:20:54.403Z,99689.88
2023-02-01T03:23:32.974Z,99682.59
2023-02-01T03:26:11.937Z,99694.38
2023-02-01T03:28:50.197Z,99692.88
2023-02-01T03:31:24.265Z,99694.38
2023-02-01T03:33:58.090Z,99689.97
2023-02-01T03:36:37.952Z,99697.78
2023-02-01T03:39:17.817Z,99647.31
2023-02-01T03:41:56.110Z,99684.16
2023-02-01T03:44:35.823Z,99699.34
2023-02-01T03:47:13.739Z,99697.00
2023-02-01T03:49:50.908Z,99696.78
2023-02-01T03:52:28.152Z,99699.25
2023-02-01T03:55:03.347Z,99701.38
2023-02-01T03:57:41.545Z,99677.53
2023-02-01T04:00:19.752Z,99713.44
2023-02-01T04:02:54.308Z,99706.41
2023-02-01T04:05:27.883Z,99702.78
2023-02-01T04:08:01.654Z,99720.03
2023-02-01T04:10:34.995Z,99725.25
2023-02-01T04:13:10.384Z,99726.94
2023-02-01T04:15:44.153Z,99715.16
2023-02-01T04:18:17.547Z,99724.13
2023-02-01T04:20:50.836Z,99729.63
2023-02-01T04:23:24.415Z,99730.63
2023-02-01T04:26:01.470Z,99735.53
2023-02-01T04:28:36.577Z,99742.47
2023-02-01T04:31:10.257Z,99733.59
2023-02-01T04:33:43.551Z,99734.22
2023-02-01T04:36:20.606Z,99737.03
2023-02-01T04:38:54.594Z,99744.03
2023-02-01T04:41:27.811Z,99744.03
2023-02-01T04:44:02.775Z,99746.81
2023-02-01T04:46:36.142Z,99752.09
2023-02-01T04:49:11.033Z,99760.06
2023-02-01T04:51:45.171Z,99755.53
2023-02-01T04:54:18.885Z,99750.44
2023-02-01T04:56:52.126Z,99757.59
2023-02-01T04:59:26.860Z,99756.94
2023-02-01T05:02:00.357Z,99760.44
2023-02-01T05:04:33.878Z,99766.69
2023-02-01T05:07:07.459Z,99768.69
2023-02-01T05:09:41.137Z,99774.88
2023-02-01T05:12:32.665Z,99777.66
2023-02-01T05:15:09.046Z,99782.94
2023-02-01T05:17:43.278Z,99788.25
2023-02-01T05:20:16.732Z,99793.56
2023-02-01T05:22:49.946Z,99799.63
2023-02-01T05:25:23.463Z,99788.31
2023-02-01T05:27:56.913Z,99796.41
2023-02-01T05:30:33.521Z,99797.06
2023-02-01T05:33:07.373Z,99796.19
2023-02-01T05:35:40.783Z,99798.13
2023-02-01T05:38:17.443Z,99796.50
2023-02-01T05:40:50.938Z,99784.91
2023-02-01T05:43:24.508Z,99790.81
2023-02-01T05:45:59.691Z,99799.78
2023-02-01T05:48:33.284Z,99795.50
2023-02-01T05:51:06.745Z,99743.63
2023-02-01T05:53:40.026Z,99799.78
2023-02-01T05:56:13.335Z,99805.03
2023-02-01T05:58:46.678Z,99809.50
2023-02-01T06:01:21.350Z,99807.88
2023-02-01T06:03:54.757Z,99814.91
2023-02-01T06:06:28.625Z,99813.00
2023-02-01T06:09:02.053Z,99813.06
2023-02-01T06:11:35.424Z,99809.22
2023-02-01T06:14:08.971Z,99811.22
2023-02-01T06:16:43.701Z,99809.34
2023-02-01T06:19:17.385Z,99810.97
2023-02-01T06:21:50.894Z,99816.69
2023-02-01T06:24:24.560Z,99823.81
2023-02-01T06:26:57.956Z,99816.69
2023-02-01T06:29:31.400Z,99825.25
2023-02-01T06:32:06.205Z,99829.31
2023-02-01T06:34:40.631Z,99828.47
2023-02-01T06:37:13.926Z,99806.16
2023-02-01T06:39:47.934Z,99831.69
2023-02-01T06:42:21.450Z,99834.31
2023-02-01T06:44:54.660Z,99839.34
2023-02-01T06:47:29.578Z,99840.91
2023-02-01T06:50:03.993Z,99844.31
2023-02-01T06:52:37.877Z,99848.50
2023-02-01T06:55:11.987Z,99849.34
2023-02-01T06:57:45.692Z,99841.53
2023-02-01T07:00:20.053Z,99851.72
2023-02-01T07:02:54.694Z,99847.13
2023-02-01T07:05:28.069Z,99847.47
2023-02-01T07:08:01.350Z,99854.22
2023-02-01T07:10:36.418Z,99855.56
2023-02-01T07:13:10.373Z,99852.44
2023-02-01T07:15:43.791Z,99848.44
2023-02-01T07:18:18.903Z,99855.00
2023-02-01T07:20:52.594Z,99851.69
2023-02-01T07:23:25.873Z,99857.97
2023-02-01T07:26:02.251Z,99838.13
2023-02-01T07:28:37.168Z,99860.06
2023-02-01T07:31:12.057Z,99867.03
2023-02-01T07:33:47.323Z,99855.97
2023-02-01T07:36:21.629Z,99874.84
2023-02-01T07:38:56.845Z,99847.09
2023-02-01T07:41:31.031Z,99867.72
2023-02-01T07:44:04.315Z,99878.34
2023-02-01T07:46:37.763Z,99859.84
2023-02-01T07:49:14.935Z,99859.41
2023-02-01T07:51:48.122Z,99866.94
2023-02-01T07:54:21.699Z,99854.44
2023-02-01T07:56:55.448Z,99870.66
2023-02-01T07:59:28.722Z,99874.72
2023-02-01T08:02:01.116Z,99881.47
2023-02-01T08:04:35.816Z,99877.81
2023-02-01T08:07:09.091Z,99880.00
2023-02-01T08:09:42.702Z,99878.28
2023-02-01T08:12:17.627Z,99885.84
2023-02-01T08:14:52.006Z,99835.94
2023-02-01T08:17:25.643Z,99881.91
2023-02-01T08:20:00.810Z,99884.81
2023-02-01T08:22:34.644Z,99885.81
2023-02-01T08:25:08.905Z,99895.19
2023-02-01T08:27:42.721Z,99888.72
2023-02-01T08:30:16.739Z,99890.09
2023-02-01T08:32:50.059Z,99880.63
2023-02-01T08:35:37.851Z,99877.47
2023-02-01T08:38:16.285Z,99881.91
2023-02-01T08:40:49.602Z,99881.63
2023-02-01T08:43:22.677Z,99889.06
2023-02-01T08:45:57.295Z,99883.25
2023-02-01T08:48:30.844Z,99862.72
2023-02-01T08:51:06.714Z,99885.25
2023-02-01T08:53:42.371Z,99880.22
2023-02-01T08:56:18.006Z,99885.06
2023-02-01T08:58:51.344Z,99876.59
2023-02-01T09:01:24.720Z,99886.50
2023-02-01T09:03:57.929Z,99879.44
2023-02-01T09:06:32.707Z,99881.34
2023-02-01T09:09:06.311Z,99859.41
2023-02-01T09:11:39.564Z,99880.97
2023-02-01T09:14:13.258Z,99878.91
2023-02-01T09:16:46.839Z,99879.84
2023-02-01T09:19:26.264Z,99857.94
2023-02-01T09:22:01.734Z,99881.00
2023-02-01T09:24:35.454Z,99864.84
2023-02-01T09:27:09.019Z,99868.34
2023-02-01T09:29:42.393Z,99868.81
2023-02-01T09:32:15.624Z,99860.69
2023-02-01T09:34:49.541Z,99855.50
2023-02-01T09:37:24.394Z,99852.38
2023-02-01T09:39:58.046Z,99858.69
2023-02-01T09:42:52.037Z,99848.31
2023-02-01T09:45:35.213Z,99848.88
2023-02-01T09:48:17.638Z,99841.03
2023-02-01T09:50:56.080Z,99834.47
2023-02-01T09:53:35.256Z,99808.59
2023-02-01T09:56:13.953Z,99772.59
2023-02-01T09:58:54.252Z,99775.72
2023-02-01T10:01:30.374Z,99818.88
2023-02-01T10:04:08.079Z,99813.53
2023-02-01T10:06:55.529Z,99812.28
2023-02-01T10:09:44.902Z,99809.34
2023-02-01T10:12:40.538Z,99808.19
2023-02-01T10:15:37.362Z,99784.00
2023-02-01T10:18:36.590Z,99803.63
2023-02-01T10:21:21.632Z,99799.22
2023-02-01T10:24:31.217Z,99802.09
2023-02-01T10:27:14.728Z,99799.28
2023-02-01T10:29:54.438Z,99798.22
2023-02-01T10:32:32.847Z,99791.88
2023-02-01T10:35:15.314Z,99789.31
2023-02-01T10:37:48.756Z,99777.34
2023-02-01T10:40:25.824Z,99781.19
2023-02-01T10:43:03.194Z,99773.56
2023-02-01T10:45:36.739Z,99771.97
2023-02-01T10:48:10.851Z,99767.97
2023-02-01T10:50:53.537Z,99761.41
2023-02-01T10:53:33.516Z,99769.59
2023-02-01T10:56:09.604Z,99746.13
2023-02-01T10:58:49.631Z,99750.81
2023-02-01T11:01:27.391Z,99747.84
2023-02-01T11:04:02.441Z,99750.16
2023-02-01T11:06:38.642Z,99743.78
2023-02-01T11:09:18.807Z,99736.78
2023-02-01T11:11:58.681Z,99745.25
2023-02-01T11:14:41.216Z,99722.47
2023-02-01T11:17:29.373Z,99726.84
2023-02-01T11:20:05.235Z,99723.19
2023-02-01T11:22:38.837Z,99719.19
2023-02-01T11:25:16.059Z,99724.69
2023-02-01T11:27:55.240Z,99712.31
2023-02-01T11:30:36.870Z,99701.69
2023-02-01T11:33:17.501Z,99690.31
2023-02-01T11:35:51.502Z,99704.63
2023-02-01T11:38:31.969Z,99693.97
2023-02-01T11:41:16.198Z,99701.16
2023-02-01T11:43:55.283Z,99690.22
2023-02-01T11:46:33.295Z,99683.63
2023-02-01T11:49:21.314Z,99670.34
2023-02-01T11:52:06.192Z,99681.84
2023-02-01T11:55:01.229Z,99687.81
2023-02-01T11:57:53.999Z,99673.47
2023-02-01T12:00:49.115Z,99678.44
2023-02-01T12:03:59.397Z,99666.88
2023-02-01T12:06:47.577Z,99668.69
2023-02-01T12:09:40.523Z,99678.28
2023-02-01T12:12:21.586Z,99659.41
2023-02-01T12:15:24.487Z,99663.97
2023-02-01T12:18:33.025Z,99645.50
2023-02-01T12:21:19.771Z,99652.72
2023-02-01T12:24:10.348Z,99653.41
2023-02-01T12:26:52.802Z,99649.69
2023-02-01T12:30:01.875Z,99646.69
2023-02-01T12:32:46.273Z,99643.72
2023-02-01T12:35:45.314Z,99644.22
2023-02-01T12:38:35.268Z,99649.81
2023-02-01T12:41:22.235Z,99653.03
2023-02-01T12:43:59.136Z,99649.19
2023-02-01T12:46:35.500Z,99658.97
2023-02-01T12:49:15.078Z,99645.69
2023-02-01T12:51:51.715Z,99646.75
2023-02-01T12:54:33.441Z,99644.09
2023-02-01T12:57:11.718Z,99643.03
2023-02-01T12:59:52.007Z,99635.53
2023-02-01T13:02:37.061Z,99632.66
2023-02-01T13:05:18.450Z,99624.44
2023-02-01T13:07:57.405Z,99618.69
2023-02-01T13:10:36.223Z,99625.16
2023-02-01T13:13:16.606Z,99622.19
2023-02-01T13:15:58.208Z,99610.09
2023-02-01T13:18:38.421Z,99616.31
2023-02-01T13:21:17.086Z,99608.47
2023-02-01T13:23:52.299Z,99614.50
2023-02-01T13:26:27.371Z,99600.25
2023-02-01T13:29:06.206Z,99604.63
2023-02-01T13:32:03.213Z,99616.53
2023-02-01T13:35:03.955Z,99617.97
2023-02-01T13:38:24.619Z,99624.50
2023-02-01T13:41:16.592Z,99613.66
2023-02-01T13:43:55.223Z,99620.66
2023-02-01T13:46:30.015Z,99622.19
2023-02-01T13:49:05.325Z,99640.66
2023-02-01T13:51:43.176Z,99589.63
2023-02-01T13:54:29.717Z,99638.25
2023-02-01T13:57:04.798Z,99641.16
2023-02-01T13:59:51.896Z,99657.66
2023-02-01T14:02:54.125Z,99650.31
2023-02-01T14:06:04.730Z,99644.50
2023-02-01T14:08:44.981Z,99639.31
2023-02-01T14:11:39.703Z,99643.88
2023-02-01T14:14:49.961Z,99644.63
2023-02-01T14:17:35.988Z,99645.81
2023-02-01T14:20:42.347Z,99644.56
2023-02-01T14:23:40.849Z,99631.81
2023-02-01T14:26:23.287Z,99637.44
2023-02-01T14:29:03.029Z,99647.94
2023-02-01T14:31:44.582Z,99646.88
2023-02-01T14:34:23.180Z,99637.16
2023-02-01T14:37:00.368Z,99623.59
2023-02-01T14:39:52.739Z,99638.78
2023-02-01T14:42:29.102Z,99646.53
2023-02-01T14:45:51.196Z,99646.34
2023-02-01T14:48:48.024Z,99641.88
2023-02-01T14:51:23.109Z,99634.69
2023-02-01T14:53:56.681Z,99640.72
2023-02-01T14:56:30.343Z,99634.81
2023-02-01T14:59:11.039Z,99642.13
2023-02-01T15:01:52.993Z,99616.94
2023-02-01T15:04:29.742Z,99637.16
2023-02-01T15:07:10.616Z,99647.75
2023-02-01T15:09:47.690Z,99648.94
2023-02-01T15:12:28.597Z,99645.56
2023-02-01T15:15:13.800Z,99643.66
2023-02-01T15:17:56.256Z,99650.97
2023-02-01T15:20:34.037Z,99652.69
2023-02-01T15:23:18.029Z,99653.84
2023-02-01T15:25:53.671Z,99639.00
2023-02-01T15:28:28.390Z,99655.47
2023-02-01T15:31:03.979Z,99661.16
2023-02-01T15:33:37.506Z,99668.72
2023-02-01T15:36:14.037Z,99674.84
2023-02-01T15:38:47.819Z,99669.97
2023-02-01T15:41:23.964Z,99664.34
2023-02-01T15:44:07.873Z,99672.19
2023-02-01T15:46:43.480Z,99667.84
2023-02-01T15:49:25.661Z,99673.97
2023-02-01T15:52:02.354Z,99673.03
2023-02-01T15:54:45.671Z,99673.16
2023-02-01T15:57:22.897Z,99668.78
2023-02-01T15:59:57.627Z,99659.75
2023-02-01T16:02:35.333Z,99670.72
2023-02-01T16:05:34.430Z,99678.94
2023-02-01T16:08:15.036Z,99657.38
2023-02-01T16:10:51.441Z,99671.06
2023-02-01T16:13:25.530Z,99684.31
2023-02-01T16:15:59.372Z,99687.25
2023-02-01T16:18:32.950Z,99683.56
2023-02-01T16:21:08.971Z,99690.41
2023-02-01T16:23:44.073Z,99675.97
2023-02-01T16:26:17.268Z,99690.72
2023-02-01T16:28:50.716Z,99689.13
2023-02-01T16:31:29.289Z,99692.91
2023-02-01T16:34:03.187Z,99689.06
2023-02-01T16:36:36.697Z,99699.31
2023-02-01T16:39:15.003Z,99692.59
2023-02-01T16:41:48.664Z,99692.69
2023-02-01T16:44:21.980Z,99688.53
2023-02-01T16:46:55.197Z,99692.53
2023-02-01T16:49:28.787Z,99681.69
2023-02-01T16:52:02.417Z,99684.31
2023-02-01T16:54:37.186Z,99687.47
2023-02-01T16:57:14.546Z,99689.34
2023-02-01T16:59:47.772Z,99670.97
2023-02-01T17:02:22.911Z,99680.88
2023-02-01T17:04:56.577Z,99686.47
2023-02-01T17:07:31.471Z,99691.00
2023-02-01T17:10:07.353Z,99689.19
2023-02-01T17:12:42.642Z,99692.59
2023-02-01T17:15:16.373Z,99684.28
2023-02-01T17:17:54.995Z,99686.94
2023-02-01T17:20:33.064Z,99686.50
2023-02-01T17:23:06.536Z,99699.97
2023-02-01T17:25:42.040Z,99698.50
2023-02-01T17:28:15.518Z,99687.25
2023-02-01T17:30:49.007Z,99672.16
2023-02-01T17:33:23.679Z,99700.66
2023-02-01T17:35:57.439Z,99702.81
2023-02-01T17:38:30.967Z,99697.09
2023-02-01T17:41:06.412Z,99645.44
2023-02-01T17:43:40.311Z,99690.75
2023-02-01T17:46:15.592Z,99700.56
2023-02-01T17:48:49.092Z,99703.78
2023-02-01T17:51:25.133Z,99693.09
2023-02-01T17:53:58.402Z,99703.97
2023-02-01T17:56:33.979Z,99690.06
2023-02-01T17:59:07.239Z,99700.75
2023-02-01T18:01:41.291Z,99699.22
2023-02-01T18:04:18.325Z,99696.00
2023-02-01T18:06:51.641Z,99686.56
2023-02-01T18:09:25.416Z,99698.94
2023-02-01T18:12:01.202Z,99698.06
2023-02-01T18:14:34.707Z,99691.72
2023-02-01T18:17:08.195Z,99704.75
2023-02-01T18:19:42.053Z,99698.81
2023-02-01T18:22:25.713Z,99701.47
2023-02-01T18:24:59.071Z,99707.84
2023-02-01T18:27:33.675Z,99703.69
2023-02-01T18:30:07.886Z,99708.22
2023-02-01T18:32:41.934Z,99703.88
2023-02-01T18:35:21.429Z,99702.25
2023-02-01T18:37:56.542Z,99699.72
2023-02-01T18:40:33.122Z,99706.09
2023-02-01T18:43:15.441Z,99702.81
2023-02-01T18:45:49.372Z,99695.41
2023-02-01T18:48:23.014Z,99708.34
2023-02-01T18:50:57.850Z,99699.84
2023-02-01T18:53:31.361Z,99713.22
2023-02-01T18:56:04.896Z,99711.78
2023-02-01T18:58:39.844Z,99710.16
2023-02-01T19:01:17.192Z,99714.69
2023-02-01T19:03:53.634Z,99715.63
2023-02-01T19:06:30.013Z,99706.88
2023-02-01T19:09:03.359Z,99710.44
2023-02-01T19:11:37.160Z,99706.16
2023-02-01T19:14:12.432Z,99709.59
2023-02-01T19:16:46.145Z,99711.28
2023-02-01T19:19:19.586Z,99713.25
2023-02-01T19:21:52.850Z,99720.56
2023-02-01T19:24:28.065Z,99717.09
2023-02-01T19:27:01.656Z,99724.06
2023-02-01T19:29:37.545Z,99729.44
2023-02-01T19:32:10.790Z,99722.38
2023-02-01T19:34:44.177Z,99723.91
2023-02-01T19:37:17.389Z,99723.28
2023-02-01T19:39:50.864Z,99712.72
2023-02-01T19:42:24.303Z,99701.59
2023-02-01T19:44:59.286Z,99705.84
2023-02-01T19:47:32.886Z,99710.28
2023-02-01T19:50:07.686Z,99706.88
2023-02-01T19:52:41.009Z,99683.91
2023-02-01T19:55:15.118Z,99704.41
2023-02-01T19:57:49.017Z,99704.34
2023-02-01T20:00:23.511Z,99699.22
2023-02-01T20:02:58.470Z,99706.00
2023-02-01T20:05:31.729Z,99708.75
2023-02-01T20:08:05.364Z,99700.06
2023-02-01T20:10:43.670Z,99705.84
2023-02-01T20:13:18.391Z,99702.69
2023-02-01T20:15:58.483Z,99703.13
2023-02-01T20:18:31.843Z,99700.47
2023-02-01T20:21:05.439Z,99710.94
2023-02-01T20:23:38.689Z,99711.88
2023-02-01T20:26:13.204Z,99708.88
2023-02-01T20:28:46.942Z,99702.47
2023-02-01T20:31:21.723Z,99702.22
2023-02-01T20:33:55.147Z,99701.84
2023-02-01T20:36:29.928Z,99708.09
2023-02-01T20:39:03.601Z,99701.84
2023-02-01T20:41:36.921Z,99701.00
2023-02-01T20:44:11.079Z,99697.81
2023-02-01T20:46:45.650Z,99707.91
2023-02-01T20:49:18.928Z,99704.47
2023-02-01T20:51:52.885Z,99710.72
2023-02-01T20:54:26.300Z,99711.56
2023-02-01T20:56:59.952Z,99705.63
2023-02-01T20:59:33.378Z,99715.13
2023-02-01T21:02:08.813Z,99708.41
2023-02-01T21:04:42.202Z,99705.97
2023-02-01T21:07:15.390Z,99716.53
2023-02-01T21:09:48.647Z,99698.84
2023-02-01T21:12:22.780Z,99715.09
2023-02-01T21:14:56.855Z,99717.16
2023-02-01T21:17:33.190Z,99719.00
2023-02-01T21:20:08.590Z,99722.19
2023-02-01T21:22:41.762Z,99724.81
2023-02-01T21:25:15.066Z,99722.53
2023-02-01T21:27:48.324Z,99728.84
2023-02-01T21:30:22.092Z,99721.09
2023-02-01T21:32:59.467Z,99724.75
2023-02-01T21:35:33.158Z,99722.47
2023-02-01T21:38:06.426Z,99724.34
2023-02-01T21:40:39.650Z,99730.72
2023-02-01T21:43:13.024Z,99736.16
2023-02-01T21:45:51.381Z,99730.19
2023-02-01T21:48:26.851Z,99739.13
2023-02-01T21:51:00.266Z,99736.75
2023-02-01T21:53:33.840Z,99736.16
2023-02-01T21:56:07.879Z,99751.97
2023-02-01T21:58:42.065Z,99754.84
2023-02-01T22:01:15.155Z,99750.25
2023-02-01T22:03:50.268Z,99748.53
2023-02-01T22:06:24.872Z,99743.72
2023-02-01T22:08:58.846Z,99742.91
2023-02-01T22:11:32.545Z,99750.06
2023-02-01T22:14:06.077Z,99746.34
2023-02-01T22:16:40.141Z,99705.81
2023-02-01T22:19:15.450Z,99750.00
2023-02-01T22:21:49.620Z,99749.06
2023-02-01T22:24:22.673Z,99735.47
2023-02-01T22:26:55.895Z,99691.94
2023-02-01T22:29:47.433Z,99742.63
2023-02-01T22:32:20.722Z,99736.63
2023-02-01T22:34:56.158Z,99740.19
2023-02-01T22:37:29.531Z,99729.81
2023-02-01T22:40:04.763Z,99676.22
2023-02-01T22:42:38.265Z,99728.16
2023-02-01T22:45:12.267Z,99731.34
2023-02-01T22:47:45.318Z,99722.84
2023-02-01T22:50:20.581Z,99724.34
2023-02-01T22:52:53.875Z,99724.31
2023-02-01T22:55:27.125Z,99719.00
2023-02-01T22:58:00.875Z,99723.84
2023-02-01T23:00:34.125Z,99723.31
2023-02-01T23:03:07.858Z,99723.16
2023-02-01T23:05:42.541Z,99701.56
2023-02-01T23:08:15.743Z,99713.13
2023-02-01T23:10:49.020Z,99717.72
2023-02-01T23:13:22.658Z,99710.28
2023-02-01T23:15:56.628Z,99702.16
2023-02-01T23:18:30.608Z,99707.97
2023-02-01T23:21:07.485Z,99706.97
2023-02-01T23:23:40.956Z,99702.16
2023-02-01T23:26:14.436Z,99701.91
2023-02-01T23:28:49.787Z,99711.44
2023-02-01T23:31:25.329Z,99696.84
2023-02-01T23:33:59.866Z,99695.81
2023-02-01T23:36:34.868Z,99690.34
2023-02-01T23:39:07.978Z,99692.44
2023-02-01T23:41:41.433Z,99691.25
2023-02-01T23:44:14.804Z,99692.06
2023-02-01T23:46:48.068Z,99686.56
2023-02-01T23:49:21.494Z,99692.81
2023-02-01T23:51:56.447Z,99678.03
2023-02-01T23:54:29.593Z,99681.78
2023-02-01T23:57:07.907Z,99685.16
2023-02-01T23:59:41.456Z,99694.53
